Time;durP1;ratioP1;P1;durP2;ratioP2;P2;SDS_P1;SDS_P2;PMS_P1;PMS_P2;Temp;Humidity;BMP_temperature;BMP_pressure;BME280_temperature;BME280_humidity;BME280_pressure;Samples;Min_cycle;Max_cycle;Signal;HPM_P1;HPM_P2
2023/10/01 00:02:25;;;;;;;13.63;6.25;;;;;;;;;;10453407;28;20051;-73
2023/10/01 00:07:28;;;;;;;7.38;5.57;;;;;;;;;;10451946;28;20088;-74
2023/10/01 00:12:29;;;;;;;19.75;5.40;;;;;;;;;;10452510;28;20307;-74
2023/10/01 00:17:31;;;;;;;21.05;6.05;;;;;;;;;;10451294;28;20036;-72
2023/10/01 00:22:33;;;;;;;14.32;6.20;;;;;;;;;;10436262;28;20025;-72
2023/10/01 00:27:33;;;;;;;12.27;5.97;;;;;;;;;;10432249;28;20278;-72
2023/10/01 00:32:34;;;;;;;10.23;5.80;;;;;;;;;;10452338;28;20025;-72
2023/10/01 00:37:34;;;;;;;10.65;5.50;;;;;;;;;;10456019;28;20150;-73
2023/10/01 00:42:35;;;;;;;8.50;5.53;;;;;;;;;;10453252;28;20055;-74
2023/10/01 00:47:39;;;;;;;18.17;5.82;;;;;;;;;;10450488;28;20338;-74
2023/10/01 00:52:41;;;;;;;14.50;5.90;;;;;;;;;;10451005;28;20326;-74
2023/10/01 00:57:41;;;;;;;12.20;5.57;;;;;;;;;;10439353;28;20021;-73
2023/10/01 01:02:57;;;;;;;13.67;5.87;;;;;;;;;;10426281;28;20096;-74
2023/10/01 01:08:00;;;;;;;13.77;6.28;;;;;;;;;;10443257;28;20272;-73
2023/10/01 01:13:03;;;;;;;15.88;6.10;;;;;;;;;;10437865;28;20162;-73
2023/10/01 01:18:07;;;;;;;10.57;6.05;;;;;;;;;;10450691;28;20016;-73
2023/10/01 01:23:07;;;;;;;13.43;5.72;;;;;;;;;;10433771;28;20331;-73
2023/10/01 01:28:12;;;;;;;13.60;5.70;;;;;;;;;;10452240;28;20012;-73
2023/10/01 01:33:20;;;;;;;12.20;5.32;;;;;;;;;;10452255;28;20071;-73
2023/10/01 01:38:22;;;;;;;20.05;6.03;;;;;;;;;;10447469;28;20244;-73
2023/10/01 01:43:22;;;;;;;18.45;7.40;;;;;;;;;;10450147;28;20040;-73
2023/10/01 01:53:36;;;;;;;10.85;6.15;;;;;;;;;;10443872;28;20326;-73
2023/10/01 01:58:37;;;;;;;16.98;7.53;;;;;;;;;;10443161;28;20037;-73
2023/10/01 02:03:39;;;;;;;11.88;6.30;;;;;;;;;;10437102;28;20063;-73
2023/10/01 02:08:58;;;;;;;14.35;6.55;;;;;;;;;;10451072;28;20320;-73
2023/10/01 02:13:59;;;;;;;17.75;6.70;;;;;;;;;;10439496;28;20028;-73
2023/10/01 02:19:18;;;;;;;14.68;6.32;;;;;;;;;;10429994;28;20049;-73
2023/10/01 02:24:22;;;;;;;10.20;6.45;;;;;;;;;;10420284;28;20017;-73
2023/10/01 02:29:28;;;;;;;10.85;6.15;;;;;;;;;;10422524;28;20223;-72
2023/10/01 02:34:29;;;;;;;10.52;5.90;;;;;;;;;;10445184;28;20101;-72
2023/10/01 02:39:29;;;;;;;17.27;7.05;;;;;;;;;;10431143;28;20252;-72
2023/10/01 02:44:31;;;;;;;14.65;7.35;;;;;;;;;;10426275;28;20025;-73
2023/10/01 02:49:32;;;;;;;13.15;8.80;;;;;;;;;;10446944;28;20048;-73
2023/10/01 02:54:37;;;;;;;11.45;6.88;;;;;;;;;;10441107;28;20454;-73
2023/10/01 03:00:19;;;;;;;19.85;7.38;;;;;;;;;;10429163;28;20039;-72
2023/10/01 03:05:05;;;;;;;18.42;6.53;;;;;;;;;;10446296;28;20033;-72
2023/10/01 03:10:12;;;;;;;12.05;6.63;;;;;;;;;;10436410;28;20024;-73
2023/10/01 03:20:58;;;;;;;19.77;8.43;;;;;;;;;;10447358;28;20033;-73
2023/10/01 03:25:40;;;;;;;17.80;7.80;;;;;;;;;;10439477;28;20232;-74
2023/10/01 03:30:45;;;;;;;14.27;7.27;;;;;;;;;;10444929;28;20203;-74
2023/10/01 03:35:48;;;;;;;12.07;6.93;;;;;;;;;;10453622;28;20215;-73
2023/10/01 03:41:02;;;;;;;15.25;7.57;;;;;;;;;;10450729;28;20080;-74
2023/10/01 03:46:14;;;;;;;19.42;8.73;;;;;;;;;;10454942;28;20044;-73
2023/10/01 03:51:16;;;;;;;26.70;7.72;;;;;;;;;;10440619;28;20334;-74
2023/10/01 03:56:17;;;;;;;18.98;7.40;;;;;;;;;;10436252;28;20017;-74
2023/10/01 04:06:46;;;;;;;12.57;8.70;;;;;;;;;;10402999;28;20033;-72
2023/10/01 04:11:49;;;;;;;11.68;7.38;;;;;;;;;;10454460;28;20304;-74
2023/10/01 04:16:50;;;;;;;17.30;7.82;;;;;;;;;;10456489;28;20092;-74
2023/10/01 04:21:50;;;;;;;15.13;8.07;;;;;;;;;;10451993;28;20207;-74
2023/10/01 04:26:50;;;;;;;16.43;7.77;;;;;;;;;;10427010;28;20014;-74
2023/10/01 04:31:52;;;;;;;21.05;8.90;;;;;;;;;;10451996;28;20275;-73
2023/10/01 04:36:53;;;;;;;16.48;7.97;;;;;;;;;;10445068;28;20052;-73
2023/10/01 04:41:59;;;;;;;14.32;8.50;;;;;;;;;;10436485;28;21064;-74
2023/10/01 04:47:24;;;;;;;20.88;8.77;;;;;;;;;;10424057;28;20233;-73
2023/10/01 04:52:24;;;;;;;26.15;7.78;;;;;;;;;;10446658;28;20222;-73
2023/10/01 04:57:25;;;;;;;19.92;7.88;;;;;;;;;;10423295;28;20107;-72
2023/10/01 05:02:25;;;;;;;14.35;8.13;;;;;;;;;;10454524;28;20107;-72
2023/10/01 05:07:27;;;;;;;17.65;8.70;;;;;;;;;;10453373;28;20051;-73
2023/10/01 05:12:31;;;;;;;17.73;9.20;;;;;;;;;;10445323;28;20476;-73
2023/10/01 05:17:31;;;;;;;17.58;7.95;;;;;;;;;;10462651;28;20206;-73
2023/10/01 05:22:46;;;;;;;20.67;8.97;;;;;;;;;;10457949;28;20024;-72
2023/10/01 05:27:46;;;;;;;22.95;9.07;;;;;;;;;;10457021;28;20315;-71
2023/10/01 05:32:51;;;;;;;16.38;7.88;;;;;;;;;;10435813;28;20029;-70
2023/10/01 05:37:53;;;;;;;17.58;8.27;;;;;;;;;;10437467;28;20012;-72
2023/10/01 05:42:54;;;;;;;16.83;7.80;;;;;;;;;;10453185;28;20303;-73
2023/10/01 05:48:00;;;;;;;21.95;9.00;;;;;;;;;;10453422;28;20036;-72
2023/10/01 05:53:01;;;;;;;19.77;8.82;;;;;;;;;;10450705;28;20064;-71
2023/10/01 05:58:26;;;;;;;12.25;7.97;;;;;;;;;;10446407;28;20032;-71
2023/10/01 06:03:23;;;;;;;18.58;8.50;;;;;;;;;;10451835;28;20138;-70
2023/10/01 06:08:32;;;;;;;14.55;7.38;;;;;;;;;;10430968;28;20062;-71
2023/10/01 06:13:37;;;;;;;21.58;7.43;;;;;;;;;;10450694;28;20211;-71
2023/10/01 06:18:41;;;;;;;15.45;7.38;;;;;;;;;;10449544;28;20311;-71
2023/10/01 06:23:51;;;;;;;16.13;6.53;;;;;;;;;;10454196;28;20406;-73
2023/10/01 06:28:51;;;;;;;26.73;6.63;;;;;;;;;;10453183;28;20218;-71
2023/10/01 06:33:53;;;;;;;21.17;6.28;;;;;;;;;;10454327;28;20223;-71
2023/10/01 06:38:54;;;;;;;15.95;6.15;;;;;;;;;;10452217;28;20274;-74
2023/10/01 06:43:54;;;;;;;15.02;6.47;;;;;;;;;;10448412;28;20025;-76
2023/10/01 06:49:03;;;;;;;15.85;6.28;;;;;;;;;;10447895;28;20076;-73
2023/10/01 06:54:05;;;;;;;16.45;7.00;;;;;;;;;;10448681;28;20025;-73
2023/10/01 07:04:05;;;;;;;17.73;7.03;;;;;;;;;;10449576;28;20056;-72
2023/10/01 07:09:23;;;;;;;14.70;6.93;;;;;;;;;;10450566;28;20089;-73
2023/10/01 07:14:43;;;;;;;13.00;9.13;;;;;;;;;;10458621;28;20020;-75
2023/10/01 07:19:45;;;;;;;22.77;7.57;;;;;;;;;;10453522;28;20080;-72
2023/10/01 07:24:45;;;;;;;14.15;7.47;;;;;;;;;;10453574;28;20256;-73
2023/10/01 07:29:47;;;;;;;15.35;7.88;;;;;;;;;;10435497;28;20009;-72
2023/10/01 07:34:50;;;;;;;20.60;8.07;;;;;;;;;;10453238;28;20356;-72
2023/10/01 07:39:55;;;;;;;14.93;8.23;;;;;;;;;;10452605;28;20311;-72
2023/10/01 07:45:00;;;;;;;20.58;8.48;;;;;;;;;;10451382;28;20204;-73
2023/10/01 07:50:05;;;;;;;20.63;7.65;;;;;;;;;;10452356;28;20021;-73
2023/10/01 07:55:29;;;;;;;24.38;8.52;;;;;;;;;;10454622;28;20311;-73
2023/10/01 08:00:26;;;;;;;23.25;9.30;;;;;;;;;;10446140;28;20247;-73
2023/10/01 08:05:33;;;;;;;20.73;8.33;;;;;;;;;;10441555;28;20041;-73
2023/10/01 08:10:37;;;;;;;17.30;8.65;;;;;;;;;;10460061;28;20855;-73
2023/10/01 08:15:50;;;;;;;16.08;7.50;;;;;;;;;;10459543;28;20036;-73
2023/10/01 08:20:58;;;;;;;21.05;8.10;;;;;;;;;;10464638;28;20036;-73
2023/10/01 08:26:42;;;;;;;24.52;8.32;;;;;;;;;;10445133;28;20063;-73
2023/10/01 08:32:08;;;;;;;17.83;8.30;;;;;;;;;;10459005;28;20028;-72
2023/10/01 08:37:06;;;;;;;28.13;7.85;;;;;;;;;;10458549;28;20029;-74
2023/10/01 08:42:09;;;;;;;14.32;7.32;;;;;;;;;;10458343;28;20032;-74
2023/10/01 08:52:34;;;;;;;20.60;10.27;;;;;;;;;;10462670;28;20319;-73
2023/10/01 08:57:37;;;;;;;22.77;10.10;;;;;;;;;;10448164;28;20307;-74
2023/10/01 09:02:39;;;;;;;19.33;7.35;;;;;;;;;;10451482;28;20012;-76
2023/10/01 09:07:40;;;;;;;22.70;7.57;;;;;;;;;;10456889;28;20337;-76
2023/10/01 09:12:47;;;;;;;13.20;7.68;;;;;;;;;;10457042;28;20025;-74
2023/10/01 09:17:56;;;;;;;23.45;7.55;;;;;;;;;;10457002;28;20052;-75
2023/10/01 09:22:59;;;;;;;19.85;8.55;;;;;;;;;;10456990;28;20088;-73
2023/10/01 09:28:19;;;;;;;20.10;9.80;;;;;;;;;;10456300;28;20033;-75
2023/10/01 09:33:23;;;;;;;23.63;11.60;;;;;;;;;;10456415;28;20021;-71
2023/10/01 09:38:27;;;;;;;18.73;7.75;;;;;;;;;;10455192;28;20044;-73
2023/10/01 09:43:29;;;;;;;20.00;7.07;;;;;;;;;;10456556;28;20025;-73
2023/10/01 09:48:35;;;;;;;12.75;6.32;;;;;;;;;;10451183;28;20319;-72
2023/10/01 09:53:43;;;;;;;19.43;9.90;;;;;;;;;;10455717;28;20306;-73
2023/10/01 09:58:47;;;;;;;11.88;6.63;;;;;;;;;;10445116;28;20052;-73
2023/10/01 10:03:49;;;;;;;13.85;7.20;;;;;;;;;;10455099;28;20067;-72
2023/10/01 10:08:52;;;;;;;19.48;7.10;;;;;;;;;;10453735;28;20104;-73
2023/10/01 10:13:57;;;;;;;12.70;6.25;;;;;;;;;;10454439;28;20045;-74
2023/10/01 10:19:12;;;;;;;14.93;6.38;;;;;;;;;;10454412;28;20025;-74
2023/10/01 10:24:28;;;;;;;14.45;5.75;;;;;;;;;;10454260;28;20088;-74
2023/10/01 10:29:49;;;;;;;11.57;5.68;;;;;;;;;;10454292;28;20025;-73
2023/10/01 10:35:03;;;;;;;9.70;6.18;;;;;;;;;;10442020;28;20032;-73
2023/10/01 10:40:12;;;;;;;14.57;5.82;;;;;;;;;;10454182;28;20074;-74
2023/10/01 10:45:22;;;;;;;10.18;5.47;;;;;;;;;;10457927;28;20079;-74
2023/10/01 10:50:22;;;;;;;10.95;4.70;;;;;;;;;;10454021;28;20031;-74
2023/10/01 10:55:22;;;;;;;19.13;4.95;;;;;;;;;;10453438;28;20315;-74
2023/10/01 11:00:27;;;;;;;9.25;4.88;;;;;;;;;;10434823;28;20231;-74
2023/10/01 11:05:32;;;;;;;14.05;6.25;;;;;;;;;;10458966;28;20055;-74
2023/10/01 11:10:45;;;;;;;15.32;5.43;;;;;;;;;;10449541;28;20020;-74
2023/10/01 11:15:46;;;;;;;15.57;6.80;;;;;;;;;;10452822;28;20279;-74
2023/10/01 11:20:46;;;;;;;14.57;6.17;;;;;;;;;;10422040;28;20211;-75
2023/10/01 11:25:47;;;;;;;13.63;6.95;;;;;;;;;;10452793;28;20311;-75
2023/10/01 11:30:47;;;;;;;14.23;6.93;;;;;;;;;;10456233;28;20471;-75
2023/10/01 11:41:08;;;;;;;14.13;8.02;;;;;;;;;;10460744;28;20028;-74
2023/10/01 11:46:24;;;;;;;62.33;57.20;;;;;;;;;;10460949;28;20354;-74
2023/10/01 11:51:30;;;;;;;15.35;7.05;;;;;;;;;;10433293;28;20055;-74
2023/10/01 11:56:32;;;;;;;16.08;7.07;;;;;;;;;;10462953;28;20036;-73
2023/10/01 12:01:39;;;;;;;17.55;7.38;;;;;;;;;;10459671;28;20025;-74
2023/10/01 12:06:39;;;;;;;10.25;6.85;;;;;;;;;;10455814;28;20021;-74
2023/10/01 12:11:39;;;;;;;16.50;7.15;;;;;;;;;;10430348;28;20058;-74
2023/10/01 12:16:40;;;;;;;13.73;6.80;;;;;;;;;;10459136;28;20040;-75
2023/10/01 12:21:40;;;;;;;11.85;6.82;;;;;;;;;;10459114;28;20315;-74
2023/10/01 12:26:43;;;;;;;13.57;7.28;;;;;;;;;;10459329;28;20025;-73
2023/10/01 12:31:48;;;;;;;15.05;6.82;;;;;;;;;;10441089;28;20033;-74
2023/10/01 12:36:51;;;;;;;17.90;7.07;;;;;;;;;;10458639;28;20025;-74
2023/10/01 12:46:51;;;;;;;20.53;7.70;;;;;;;;;;10458159;28;20367;-74
2023/10/01 12:51:55;;;;;;;18.10;7.03;;;;;;;;;;10452525;28;20035;-73
2023/10/01 13:02:43;;;;;;;12.43;7.60;;;;;;;;;;10289810;28;20022;-74
2023/10/01 13:07:45;;;;;;;23.20;8.13;;;;;;;;;;10403876;28;20270;-74
2023/10/01 13:13:01;;;;;;;23.73;10.80;;;;;;;;;;10439006;28;20036;-74
2023/10/01 13:18:04;;;;;;;17.02;9.88;;;;;;;;;;10445706;28;20025;-73
2023/10/01 13:23:07;;;;;;;23.55;10.60;;;;;;;;;;10461051;28;20311;-74
2023/10/01 13:28:08;;;;;;;23.23;9.98;;;;;;;;;;10456010;28;20028;-75
2023/10/01 13:33:13;;;;;;;24.30;10.20;;;;;;;;;;10456578;28;20052;-74
2023/10/01 13:38:56;;;;;;;18.13;9.40;;;;;;;;;;10442589;28;20104;-73
2023/10/01 14:10:16;;;;;;;18.67;10.68;;;;;;;;;;10442953;28;20005;-75
2023/10/01 14:15:23;;;;;;;26.50;10.68;;;;;;;;;;10437178;28;20315;-75
2023/10/01 14:20:38;;;;;;;18.35;9.88;;;;;;;;;;10454770;28;20055;-73
2023/10/01 14:26:10;;;;;;;22.13;11.23;;;;;;;;;;10439448;28;20230;-74
2023/10/01 14:31:02;;;;;;;20.05;11.25;;;;;;;;;;10453659;28;20029;-74
2023/10/01 14:36:03;;;;;;;20.42;11.77;;;;;;;;;;10459240;28;20012;-74
2023/10/01 14:41:09;;;;;;;22.05;13.38;;;;;;;;;;10457411;28;20334;-74
2023/10/01 14:46:13;;;;;;;22.63;11.93;;;;;;;;;;10452354;28;20315;-74
2023/10/01 14:51:18;;;;;;;20.63;11.55;;;;;;;;;;10454292;28;20055;-74
2023/10/01 14:56:20;;;;;;;18.08;11.55;;;;;;;;;;10453826;28;20071;-74
2023/10/01 15:01:20;;;;;;;22.52;11.40;;;;;;;;;;10435599;28;20325;-74
2023/10/01 15:06:22;;;;;;;23.92;12.63;;;;;;;;;;10458226;28;20020;-75
2023/10/01 15:11:23;;;;;;;20.08;11.50;;;;;;;;;;10445784;28;20025;-75
2023/10/01 15:16:23;;;;;;;22.02;12.85;;;;;;;;;;10464515;28;20025;-74
2023/10/01 15:21:29;;;;;;;25.15;13.68;;;;;;;;;;10460428;28;20033;-74
2023/10/01 15:26:30;;;;;;;26.52;14.70;;;;;;;;;;10460155;28;20032;-74
2023/10/01 15:31:30;;;;;;;33.60;15.10;;;;;;;;;;10459763;28;20053;-74
2023/10/01 15:36:40;;;;;;;26.20;13.57;;;;;;;;;;10461121;28;20047;-74
2023/10/01 15:41:44;;;;;;;26.98;14.82;;;;;;;;;;10443622;28;20100;-75
2023/10/01 15:46:44;;;;;;;26.38;14.65;;;;;;;;;;10460961;28;20262;-73
2023/10/01 15:51:46;;;;;;;28.92;14.82;;;;;;;;;;10460549;28;20079;-74
2023/10/01 15:56:46;;;;;;;29.25;16.75;;;;;;;;;;10449076;28;20028;-74
2023/10/01 16:01:52;;;;;;;29.50;14.55;;;;;;;;;;10458993;28;20196;-74
2023/10/01 16:07:03;;;;;;;26.52;15.15;;;;;;;;;;10444073;28;20025;-73
2023/10/01 16:12:06;;;;;;;26.38;16.05;;;;;;;;;;10439939;28;20009;-73
2023/10/01 16:17:17;;;;;;;28.15;15.40;;;;;;;;;;10457927;28;20375;-75
2023/10/01 16:22:22;;;;;;;32.53;17.73;;;;;;;;;;10441166;28;20024;-74
2023/10/01 16:27:27;;;;;;;29.25;14.27;;;;;;;;;;10459378;28;20021;-74
2023/10/01 16:32:27;;;;;;;27.85;14.77;;;;;;;;;;10441067;28;20021;-74
2023/10/01 16:37:28;;;;;;;28.57;15.03;;;;;;;;;;10439692;28;20299;-74
2023/10/01 16:42:28;;;;;;;28.75;14.63;;;;;;;;;;10434166;28;20016;-74
2023/10/01 16:47:30;;;;;;;28.58;16.33;;;;;;;;;;10455476;28;20056;-74
2023/10/01 16:52:34;;;;;;;30.60;15.70;;;;;;;;;;10455751;28;20032;-76
2023/10/01 16:57:35;;;;;;;32.00;16.50;;;;;;;;;;10434480;28;20048;-75
2023/10/01 17:02:37;;;;;;;27.23;15.93;;;;;;;;;;10455932;28;20521;-73
2023/10/01 17:07:39;;;;;;;30.70;16.77;;;;;;;;;;10451711;28;20326;-74
2023/10/01 17:12:41;;;;;;;27.30;16.95;;;;;;;;;;10456255;28;20025;-76
2023/10/01 17:17:44;;;;;;;31.08;17.88;;;;;;;;;;10447858;28;20089;-75
2023/10/01 17:22:46;;;;;;;33.30;17.15;;;;;;;;;;10455699;28;20036;-75
2023/10/01 17:27:46;;;;;;;31.60;17.50;;;;;;;;;;10445695;28;20025;-73
2023/10/01 17:33:00;;;;;;;35.22;19.13;;;;;;;;;;10454295;28;20020;-72
2023/10/01 17:38:09;;;;;;;31.67;18.40;;;;;;;;;;10450973;28;20307;-73
2023/10/01 17:43:10;;;;;;;36.78;19.75;;;;;;;;;;10446128;28;20131;-73
2023/10/01 17:48:16;;;;;;;31.98;17.67;;;;;;;;;;10440754;28;20239;-72
2023/10/01 17:53:20;;;;;;;38.65;19.67;;;;;;;;;;10441856;28;20037;-77
2023/10/01 17:58:21;;;;;;;39.00;20.52;;;;;;;;;;10440118;28;20025;-76
2023/10/01 18:03:27;;;;;;;51.03;22.88;;;;;;;;;;10438982;28;20097;-78
2023/10/01 18:08:27;;;;;;;42.63;22.80;;;;;;;;;;10459067;28;20031;-78
2023/10/01 18:13:28;;;;;;;43.63;21.92;;;;;;;;;;10440943;28;20091;-74
2023/10/01 18:18:29;;;;;;;44.55;21.70;;;;;;;;;;10450196;28;20322;-76
2023/10/01 18:23:29;;;;;;;36.63;21.35;;;;;;;;;;10466870;28;20029;-74
2023/10/01 18:28:30;;;;;;;34.43;20.60;;;;;;;;;;10468233;28;20211;-74
2023/10/01 18:33:35;;;;;;;40.05;22.35;;;;;;;;;;10459387;28;20524;-73
2023/10/01 18:38:38;;;;;;;33.63;20.13;;;;;;;;;;10459516;28;20180;-73
2023/10/01 18:43:38;;;;;;;33.47;20.70;;;;;;;;;;10463560;28;20035;-75
2023/10/01 18:48:39;;;;;;;32.63;19.10;;;;;;;;;;10461818;28;20334;-73
2023/10/01 18:53:40;;;;;;;30.52;20.08;;;;;;;;;;10459810;28;20129;-75
2023/10/01 18:58:41;;;;;;;40.75;20.48;;;;;;;;;;10457846;28;20027;-74
2023/10/01 19:03:46;;;;;;;31.38;18.95;;;;;;;;;;10468993;28;20024;-74
2023/10/01 19:08:47;;;;;;;35.92;20.33;;;;;;;;;;10461117;28;20025;-74
2023/10/01 19:13:50;;;;;;;30.03;19.30;;;;;;;;;;10454753;28;20217;-74
2023/10/01 19:18:52;;;;;;;27.48;19.10;;;;;;;;;;10466992;28;20306;-74
2023/10/01 19:23:55;;;;;;;36.40;19.88;;;;;;;;;;10461099;28;20243;-74
2023/10/01 19:28:55;;;;;;;33.80;20.55;;;;;;;;;;10460274;28;20025;-77
2023/10/01 19:33:56;;;;;;;33.17;20.13;;;;;;;;;;10462298;28;20220;-76
2023/10/01 19:38:59;;;;;;;35.90;19.80;;;;;;;;;;10465630;28;20310;-76
2023/10/01 19:43:59;;;;;;;36.70;20.33;;;;;;;;;;10458507;28;20032;-75
2023/10/01 19:49:00;;;;;;;30.55;19.52;;;;;;;;;;10458126;28;20112;-74
2023/10/01 19:54:06;;;;;;;33.93;19.57;;;;;;;;;;10464245;28;20120;-75
2023/10/01 19:59:13;;;;;;;33.47;19.88;;;;;;;;;;10467388;28;20307;-74
2023/10/01 20:04:13;;;;;;;31.95;20.05;;;;;;;;;;10478463;28;20401;-75
2023/10/01 20:09:23;;;;;;;39.63;22.23;;;;;;;;;;10470497;28;20017;-74
2023/10/01 20:14:28;;;;;;;33.95;20.92;;;;;;;;;;10471821;28;20028;-75
2023/10/01 20:19:29;;;;;;;34.50;21.23;;;;;;;;;;10475793;28;20367;-73
2023/10/01 20:24:29;;;;;;;31.77;20.85;;;;;;;;;;10487470;28;20009;-73
2023/10/01 20:29:30;;;;;;;39.53;23.57;;;;;;;;;;10471946;28;20016;-74
2023/10/01 20:34:31;;;;;;;36.53;21.75;;;;;;;;;;10471204;28;20642;-75
2023/10/01 20:39:40;;;;;;;34.00;22.08;;;;;;;;;;10482890;28;20020;-74
2023/10/01 20:44:45;;;;;;;33.17;21.45;;;;;;;;;;10475088;28;20017;-79
2023/10/01 20:49:46;;;;;;;34.17;21.77;;;;;;;;;;10466748;28;20256;-78
2023/10/01 20:54:47;;;;;;;36.50;22.17;;;;;;;;;;10471974;28;20055;-79
2023/10/01 20:59:47;;;;;;;37.33;23.63;;;;;;;;;;10474789;22;20136;-77
2023/10/01 21:04:50;;;;;;;36.45;21.90;;;;;;;;;;10429272;28;20029;-80
2023/10/01 21:09:51;;;;;;;38.40;24.25;;;;;;;;;;10416905;28;20060;-84
2023/10/01 21:14:54;;;;;;;40.97;26.80;;;;;;;;;;10363800;28;20048;-80
2023/10/01 21:20:09;;;;;;;38.95;23.00;;;;;;;;;;10387609;28;20029;-81
2023/10/01 21:25:21;;;;;;;39.08;22.75;;;;;;;;;;10383531;28;20029;-81
2023/10/01 21:30:26;;;;;;;37.83;22.38;;;;;;;;;;10399939;28;20169;-80
2023/10/01 21:35:26;;;;;;;36.30;20.65;;;;;;;;;;10380822;28;20049;-84
2023/10/01 21:40:26;;;;;;;34.03;21.90;;;;;;;;;;10374728;28;20056;-83
2023/10/01 21:45:58;;;;;;;32.40;22.10;;;;;;;;;;10374280;28;20025;-84
2023/10/01 21:51:01;;;;;;;34.35;22.58;;;;;;;;;;10393478;28;20033;-81
2023/10/01 21:56:06;;;;;;;31.88;19.80;;;;;;;;;;10390546;28;20045;-79
2023/10/01 22:06:29;;;;;;;37.17;23.08;;;;;;;;;;10404498;28;20033;-79
2023/10/01 22:11:29;;;;;;;39.38;21.40;;;;;;;;;;10375940;28;20021;-80
2023/10/01 22:16:34;;;;;;;34.40;20.88;;;;;;;;;;10398050;28;20040;-82
2023/10/01 22:21:36;;;;;;;38.92;21.30;;;;;;;;;;10385983;28;20018;-77
2023/10/01 22:26:36;;;;;;;33.83;20.50;;;;;;;;;;10383388;28;20021;-83
2023/10/01 22:31:38;;;;;;;32.05;20.10;;;;;;;;;;10379069;28;20371;-78
2023/10/01 22:36:46;;;;;;;34.97;19.52;;;;;;;;;;10403690;28;20029;-80
2023/10/01 22:41:47;;;;;;;31.77;20.58;;;;;;;;;;10398840;28;20017;-83
2023/10/01 22:46:49;;;;;;;35.85;19.80;;;;;;;;;;10398641;28;20029;-80
2023/10/01 22:51:49;;;;;;;31.95;18.98;;;;;;;;;;10387428;28;20028;-75
2023/10/01 22:56:51;;;;;;;27.97;19.67;;;;;;;;;;10389618;28;20716;-81
2023/10/01 23:01:57;;;;;;;30.13;18.48;;;;;;;;;;10379812;28;20046;-82
2023/10/01 23:06:58;;;;;;;30.33;18.17;;;;;;;;;;10376684;28;20036;-81
2023/10/01 23:11:58;;;;;;;30.52;17.25;;;;;;;;;;10380566;28;20428;-77
2023/10/01 23:16:58;;;;;;;29.42;18.38;;;;;;;;;;10377856;28;20041;-74
2023/10/01 23:22:03;;;;;;;26.00;17.58;;;;;;;;;;10396753;28;20231;-75
2023/10/01 23:27:03;;;;;;;31.08;17.48;;;;;;;;;;10388370;28;20492;-81
2023/10/01 23:32:17;;;;;;;20.42;14.23;;;;;;;;;;10388562;28;20024;-80
2023/10/01 23:37:37;;;;;;;22.30;14.30;;;;;;;;;;10389578;28;20028;-81
2023/10/01 23:42:47;;;;;;;28.08;15.43;;;;;;;;;;10388124;28;20021;-80
2023/10/01 23:48:00;;;;;;;21.17;13.85;;;;;;;;;;10393945;28;20013;-80
2023/10/01 23:53:06;;;;;;;20.95;11.95;;;;;;;;;;10385371;28;20025;-81
2023/10/01 23:58:14;;;;;;;24.63;12.30;;;;;;;;;;10392340;28;20057;-83
